createdAt,value
2023-08-15T00:00:51.651Z,21.70
2023-08-15T00:03:35.636Z,21.67
2023-08-15T00:06:21.375Z,21.70
2023-08-15T00:09:05.646Z,21.49
2023-08-15T00:11:49.530Z,21.56
2023-08-15T00:14:33.421Z,21.60
2023-08-15T00:17:19.052Z,21.69
2023-08-15T00:20:03.256Z,22.01
2023-08-15T00:22:48.261Z,22.28
2023-08-15T00:25:32.677Z,22.37
2023-08-15T00:28:16.466Z,22.64
2023-08-15T00:31:00.441Z,22.74
2023-08-15T00:33:45.745Z,22.01
2023-08-15T00:36:29.618Z,22.88
2023-08-15T00:39:13.494Z,22.97
2023-08-15T00:41:57.363Z,22.77
2023-08-15T00:44:43.978Z,22.50
2023-08-15T00:47:28.510Z,22.61
2023-08-15T00:50:14.810Z,22.68
2023-08-15T00:52:59.013Z,22.90
2023-08-15T00:55:43.968Z,22.87
2023-08-15T00:58:30.633Z,22.34
2023-08-15T01:01:19.289Z,22.55
2023-08-15T01:04:04.494Z,22.39
2023-08-15T01:06:50.881Z,22.32
2023-08-15T01:09:34.920Z,22.41
2023-08-15T01:12:27.327Z,22.64
2023-08-15T01:15:18.166Z,22.79
2023-08-15T01:18:07.818Z,22.86
2023-08-15T01:20:53.047Z,23.03
2023-08-15T01:23:43.185Z,23.00
2023-08-15T01:26:27.208Z,22.92
2023-08-15T01:29:11.297Z,22.98
2023-08-15T01:32:06.218Z,23.25
2023-08-15T01:34:58.866Z,23.20
2023-08-15T01:37:46.646Z,23.21
2023-08-15T01:40:36.476Z,22.83
2023-08-15T01:43:21.767Z,23.34
2023-08-15T01:46:06.930Z,23.38
2023-08-15T01:48:51.839Z,23.40
2023-08-15T01:51:35.619Z,23.97
2023-08-15T01:54:19.394Z,23.90
2023-08-15T01:57:04.971Z,23.78
2023-08-15T01:59:48.984Z,23.70
2023-08-15T02:02:33.023Z,23.57
2023-08-15T02:05:16.931Z,23.51
2023-08-15T02:08:02.266Z,23.69
2023-08-15T02:10:47.403Z,23.67
2023-08-15T02:13:34.700Z,24.06
2023-08-15T02:16:19.470Z,23.97
2023-08-15T02:19:03.864Z,23.67
2023-08-15T02:21:47.683Z,23.68
2023-08-15T02:24:31.822Z,23.62
2023-08-15T02:27:15.740Z,23.58
2023-08-15T02:30:00.992Z,23.57
2023-08-15T02:32:44.981Z,23.41
2023-08-15T02:35:28.938Z,23.41
2023-08-15T02:38:12.855Z,23.43
2023-08-15T02:40:56.776Z,23.36
2023-08-15T02:43:40.559Z,23.49
2023-08-15T02:46:28.158Z,23.40
2023-08-15T02:49:12.502Z,23.39
2023-08-15T02:51:56.997Z,23.49
2023-08-15T02:54:40.883Z,23.53
2023-08-15T02:57:24.968Z,23.52
2023-08-15T03:00:10.822Z,23.40
2023-08-15T03:02:56.149Z,23.60
2023-08-15T03:05:40.427Z,23.48
2023-08-15T03:08:24.300Z,23.49
2023-08-15T03:11:08.222Z,23.34
2023-08-15T03:13:52.108Z,23.42
2023-08-15T03:16:36.128Z,23.57
2023-08-15T03:19:21.452Z,23.40
2023-08-15T03:22:05.449Z,23.39
2023-08-15T03:24:49.406Z,23.47
2023-08-15T03:27:33.379Z,23.46
2023-08-15T03:30:17.382Z,23.51
2023-08-15T03:33:01.391Z,23.47
2023-08-15T03:35:50.435Z,23.47
2023-08-15T03:38:34.372Z,23.59
2023-08-15T03:41:18.342Z,23.45
2023-08-15T03:44:02.464Z,23.72
2023-08-15T03:46:47.080Z,23.76
2023-08-15T03:49:33.228Z,23.90
2023-08-15T03:52:18.628Z,23.95
2023-08-15T03:55:03.342Z,23.90
2023-08-15T03:57:48.061Z,24.07
2023-08-15T04:00:33.556Z,23.79
2023-08-15T04:03:18.210Z,23.57
2023-08-15T04:06:03.566Z,23.66
2023-08-15T04:08:49.023Z,23.55
2023-08-15T04:11:33.963Z,23.53
2023-08-15T04:14:18.177Z,23.41
2023-08-15T04:17:02.447Z,23.55
2023-08-15T04:19:46.638Z,23.58
2023-08-15T04:22:31.917Z,23.41
2023-08-15T04:25:17.478Z,23.54
2023-08-15T04:28:01.562Z,23.57
2023-08-15T04:30:46.244Z,23.75
2023-08-15T04:33:30.511Z,23.68
2023-08-15T04:36:14.734Z,24.04
2023-08-15T04:38:58.862Z,23.92
2023-08-15T04:41:45.101Z,24.36
2023-08-15T04:44:29.432Z,24.34
2023-08-15T04:47:13.643Z,24.44
2023-08-15T04:49:57.773Z,24.63
2023-08-15T04:52:42.027Z,24.68
2023-08-15T04:55:26.326Z,24.73
2023-08-15T04:58:12.129Z,24.72
2023-08-15T05:00:56.230Z,24.67
2023-08-15T05:03:40.300Z,24.71
2023-08-15T05:06:24.411Z,24.78
2023-08-15T05:09:08.714Z,24.77
2023-08-15T05:11:52.813Z,24.75
2023-08-15T05:14:39.084Z,24.96
2023-08-15T05:17:24.075Z,24.94
2023-08-15T05:20:09.212Z,25.45
2023-08-15T05:22:53.425Z,25.46
2023-08-15T05:25:38.646Z,25.48
2023-08-15T05:28:23.214Z,25.54
2023-08-15T05:31:08.828Z,25.87
2023-08-15T05:33:53.027Z,25.68
2023-08-15T05:36:37.872Z,25.68
2023-08-15T05:39:22.210Z,25.88
2023-08-15T05:42:06.527Z,26.18
2023-08-15T05:44:50.686Z,26.34
2023-08-15T05:47:36.213Z,26.13
2023-08-15T05:50:20.614Z,26.35
2023-08-15T05:53:04.750Z,26.75
2023-08-15T05:55:48.880Z,26.68
2023-08-15T05:58:32.995Z,26.93
2023-08-15T06:01:17.309Z,26.85
2023-08-15T06:04:03.271Z,27.03
2023-08-15T06:06:47.812Z,26.97
2023-08-15T06:09:32.032Z,27.22
2023-08-15T06:12:15.888Z,27.39
2023-08-15T06:14:59.944Z,27.70
2023-08-15T06:17:44.020Z,27.39
2023-08-15T06:20:29.701Z,27.51
2023-08-15T06:23:13.648Z,27.74
2023-08-15T06:25:57.995Z,27.71
2023-08-15T06:28:41.926Z,27.24
2023-08-15T06:31:25.861Z,27.56
2023-08-15T06:34:10.043Z,27.65
2023-08-15T06:36:55.740Z,27.77
2023-08-15T06:39:39.605Z,27.94
2023-08-15T06:42:23.573Z,27.86
2023-08-15T06:45:08.849Z,27.37
2023-08-15T06:47:52.832Z,27.18
2023-08-15T06:50:36.865Z,27.02
2023-08-15T06:53:22.185Z,26.87
2023-08-15T06:56:08.318Z,26.87
2023-08-15T06:58:52.413Z,26.97
2023-08-15T07:01:36.305Z,27.13
2023-08-15T07:04:20.317Z,27.14
2023-08-15T07:07:04.274Z,27.64
2023-08-15T07:09:49.554Z,28.05
2023-08-15T07:12:33.576Z,28.24
2023-08-15T07:15:17.660Z,27.90
2023-08-15T07:18:01.797Z,27.87
2023-08-15T07:20:46.173Z,28.23
2023-08-15T07:23:30.560Z,28.39
2023-08-15T07:26:15.913Z,28.46
2023-08-15T07:28:59.927Z,28.39
2023-08-15T07:31:44.614Z,28.59
2023-08-15T07:34:28.626Z,28.39
2023-08-15T07:37:12.996Z,28.69
2023-08-15T07:39:59.446Z,28.91
2023-08-15T07:42:45.245Z,29.12
2023-08-15T07:45:29.284Z,29.15
2023-08-15T07:48:13.166Z,29.58
2023-08-15T07:50:57.121Z,29.68
2023-08-15T07:53:41.059Z,29.47
2023-08-15T07:56:25.101Z,29.49
2023-08-15T07:59:10.486Z,29.53
2023-08-15T08:01:54.614Z,29.54
2023-08-15T08:04:38.558Z,29.34
2023-08-15T08:07:22.769Z,29.21
2023-08-15T08:10:08.021Z,29.43
2023-08-15T08:12:51.985Z,29.08
2023-08-15T08:15:37.624Z,29.25
2023-08-15T08:18:21.745Z,28.94
2023-08-15T08:21:07.354Z,29.45
2023-08-15T08:23:51.227Z,28.97
2023-08-15T08:26:35.263Z,28.71
2023-08-15T08:29:19.149Z,28.31
2023-08-15T08:32:04.687Z,28.24
2023-08-15T08:34:48.502Z,28.32
2023-08-15T08:37:32.503Z,28.19
2023-08-15T08:40:16.505Z,28.22
2023-08-15T08:43:01.250Z,28.62
2023-08-15T08:45:50.428Z,28.41
2023-08-15T08:48:38.007Z,28.49
2023-08-15T08:51:24.298Z,28.58
2023-08-15T08:54:08.214Z,28.62
2023-08-15T08:56:55.559Z,28.65
2023-08-15T08:59:41.474Z,29.21
2023-08-15T09:02:25.598Z,28.69
2023-08-15T09:05:13.291Z,28.73
2023-08-15T09:07:57.739Z,29.09
2023-08-15T09:10:43.365Z,28.64
2023-08-15T09:13:27.571Z,29.02
2023-08-15T09:16:11.660Z,29.31
2023-08-15T09:18:55.615Z,29.28
2023-08-15T09:21:41.849Z,29.37
2023-08-15T09:24:28.628Z,29.64
2023-08-15T09:27:12.726Z,29.52
2023-08-15T09:29:56.568Z,29.63
2023-08-15T09:32:44.928Z,29.89
2023-08-15T09:35:28.992Z,29.85
2023-08-15T09:38:15.273Z,30.00
2023-08-15T09:40:59.598Z,30.29
2023-08-15T09:43:52.499Z,30.12
2023-08-15T09:46:37.693Z,29.96
2023-08-15T09:49:22.470Z,29.86
2023-08-15T09:52:07.107Z,29.82
2023-08-15T09:54:52.620Z,30.15
2023-08-15T09:57:36.860Z,30.20
2023-08-15T10:00:21.654Z,30.89
2023-08-15T10:03:17.229Z,30.86
2023-08-15T10:06:04.188Z,30.28
2023-08-15T10:08:48.845Z,30.78
2023-08-15T10:11:38.430Z,30.23
2023-08-15T10:14:24.385Z,30.06
2023-08-15T10:17:08.562Z,30.34
2023-08-15T10:19:52.485Z,30.17
2023-08-15T10:22:36.885Z,29.99
2023-08-15T10:25:23.132Z,29.90
2023-08-15T10:28:11.441Z,30.01
2023-08-15T10:30:55.990Z,29.52
2023-08-15T10:33:43.192Z,29.79
2023-08-15T10:36:27.399Z,30.12
2023-08-15T10:39:11.412Z,30.35
2023-08-15T10:41:59.815Z,30.38
2023-08-15T10:45:00.796Z,30.57
2023-08-15T10:47:44.809Z,30.04
2023-08-15T10:50:29.014Z,30.42
2023-08-15T10:53:13.014Z,31.01
2023-08-15T10:55:57.228Z,30.95
2023-08-15T10:58:43.030Z,30.45
2023-08-15T11:01:30.495Z,31.18
2023-08-15T11:04:16.640Z,31.16
2023-08-15T11:07:00.997Z,31.37
2023-08-15T11:09:45.469Z,30.89
2023-08-15T11:12:29.364Z,30.51
2023-08-15T11:15:13.670Z,30.47
2023-08-15T11:17:59.342Z,30.25
2023-08-15T11:20:43.746Z,29.92
2023-08-15T11:23:29.722Z,30.14
2023-08-15T11:26:15.546Z,30.42
2023-08-15T11:29:00.865Z,31.84
2023-08-15T11:31:45.160Z,32.22
2023-08-15T11:34:30.745Z,32.56
2023-08-15T11:37:15.833Z,31.99
2023-08-15T11:40:00.063Z,31.56
2023-08-15T11:42:44.882Z,31.29
2023-08-15T11:45:29.278Z,31.15
2023-08-15T11:48:15.737Z,31.30
2023-08-15T11:51:02.731Z,31.36
2023-08-15T11:53:52.219Z,31.69
2023-08-15T11:56:49.956Z,31.41
2023-08-15T11:59:34.247Z,30.84
2023-08-15T12:02:19.330Z,30.49
2023-08-15T12:05:11.394Z,30.41
2023-08-15T12:08:00.425Z,31.09
2023-08-15T12:10:45.386Z,30.56
2023-08-15T12:13:33.657Z,30.76
2023-08-15T12:16:20.708Z,30.64
2023-08-15T12:19:05.375Z,30.80
2023-08-15T12:21:50.947Z,30.57
2023-08-15T12:24:36.607Z,30.62
2023-08-15T12:27:20.540Z,31.42
2023-08-15T12:30:12.033Z,31.61
2023-08-15T12:32:58.427Z,31.15
2023-08-15T12:35:43.599Z,31.04
2023-08-15T12:38:27.494Z,30.66
2023-08-15T12:41:14.985Z,30.03
2023-08-15T12:43:59.444Z,29.91
2023-08-15T12:46:43.838Z,29.97
2023-08-15T12:49:28.610Z,29.51
2023-08-15T12:52:12.843Z,30.29
2023-08-15T12:54:56.964Z,30.97
2023-08-15T12:57:43.104Z,30.49
2023-08-15T13:00:27.526Z,31.41
2023-08-15T13:03:12.443Z,31.48
2023-08-15T13:05:56.640Z,31.33
2023-08-15T13:08:40.592Z,31.40
2023-08-15T13:11:24.962Z,31.27
2023-08-15T13:14:10.619Z,31.57
2023-08-15T13:16:54.737Z,31.25
2023-08-15T13:19:39.261Z,30.97
2023-08-15T13:22:23.817Z,30.88
2023-08-15T13:25:08.983Z,31.05
2023-08-15T13:27:53.204Z,30.87
2023-08-15T13:30:38.986Z,31.02
2023-08-15T13:33:23.020Z,30.83
2023-08-15T13:36:07.818Z,30.62
2023-08-15T13:38:53.775Z,30.39
2023-08-15T13:41:37.997Z,30.01
2023-08-15T13:44:22.671Z,30.39
2023-08-15T13:47:08.085Z,29.88
2023-08-15T13:49:52.074Z,30.15
2023-08-15T13:52:38.069Z,30.54
2023-08-15T13:55:22.731Z,29.89
2023-08-15T13:58:06.852Z,29.76
2023-08-15T14:00:50.782Z,30.28
2023-08-15T14:03:36.282Z,29.34
2023-08-15T14:06:20.460Z,29.43
2023-08-15T14:09:04.374Z,29.67
2023-08-15T14:11:48.281Z,29.93
2023-08-15T14:14:32.281Z,29.63
2023-08-15T14:17:16.476Z,29.91
2023-08-15T14:20:01.807Z,30.13
2023-08-15T14:22:47.834Z,29.80
2023-08-15T14:25:32.139Z,29.57
2023-08-15T14:28:17.934Z,30.20
2023-08-15T14:31:05.422Z,29.96
2023-08-15T14:33:49.337Z,29.79
2023-08-15T14:36:34.659Z,29.95
2023-08-15T14:39:18.609Z,29.99
2023-08-15T14:42:02.508Z,30.08
2023-08-15T14:44:46.466Z,30.28
2023-08-15T14:47:31.596Z,29.86
2023-08-15T14:50:15.500Z,30.23
2023-08-15T14:53:00.742Z,30.48
2023-08-15T14:55:44.720Z,30.80
2023-08-15T14:58:29.540Z,30.04
2023-08-15T15:01:13.608Z,30.43
2023-08-15T15:03:58.095Z,29.90
2023-08-15T15:06:42.045Z,29.71
2023-08-15T15:09:27.446Z,29.68
2023-08-15T15:12:11.356Z,29.43
2023-08-15T15:14:56.689Z,29.74
2023-08-15T15:17:40.767Z,29.64
2023-08-15T15:20:24.781Z,29.57
2023-08-15T15:23:08.656Z,29.16
2023-08-15T15:25:54.083Z,28.99
2023-08-15T15:28:38.186Z,28.98
2023-08-15T15:31:22.248Z,28.95
2023-08-15T15:34:06.033Z,29.10
2023-08-15T15:36:50.113Z,28.88
2023-08-15T15:39:34.357Z,29.04
2023-08-15T15:42:19.889Z,29.47
2023-08-15T15:45:04.038Z,29.16
2023-08-15T15:47:48.524Z,29.07
2023-08-15T15:50:34.705Z,29.06
2023-08-15T15:53:18.747Z,28.44
2023-08-15T15:56:02.572Z,28.71
2023-08-15T15:58:48.797Z,28.32
2023-08-15T16:01:32.712Z,28.39
2023-08-15T16:04:16.748Z,28.18
2023-08-15T16:07:00.676Z,28.59
2023-08-15T16:09:45.981Z,28.36
2023-08-15T16:12:29.943Z,28.37
2023-08-15T16:15:15.347Z,28.45
2023-08-15T16:17:59.330Z,28.65
2023-08-15T16:20:43.242Z,28.38
2023-08-15T16:23:27.532Z,28.30
2023-08-15T16:26:11.898Z,28.50
2023-08-15T16:28:55.798Z,28.37
2023-08-15T16:31:41.225Z,28.02
2023-08-15T16:34:25.350Z,28.25
2023-08-15T16:37:09.390Z,28.30
2023-08-15T16:39:53.446Z,27.46
2023-08-15T16:42:37.443Z,27.82
2023-08-15T16:45:21.256Z,27.73
2023-08-15T16:48:07.464Z,27.50
2023-08-15T16:50:51.613Z,27.66
2023-08-15T16:53:35.449Z,27.60
2023-08-15T16:56:19.410Z,27.58
2023-08-15T16:59:03.279Z,27.47
2023-08-15T17:01:47.362Z,27.49
2023-08-15T17:04:32.862Z,27.42
2023-08-15T17:07:16.784Z,27.37
2023-08-15T17:10:00.719Z,27.26
2023-08-15T17:12:44.801Z,27.37
2023-08-15T17:15:28.927Z,27.17
2023-08-15T17:18:12.896Z,26.95
2023-08-15T17:20:58.058Z,26.89
2023-08-15T17:23:42.077Z,26.90
2023-08-15T17:26:27.553Z,27.00
2023-08-15T17:29:11.485Z,26.70
2023-08-15T17:31:55.386Z,26.64
2023-08-15T17:34:39.302Z,26.69
2023-08-15T17:37:24.848Z,26.53
2023-08-15T17:40:10.078Z,26.40
2023-08-15T17:42:54.051Z,26.65
2023-08-15T17:45:40.944Z,26.46
2023-08-15T17:48:25.012Z,26.34
2023-08-15T17:51:08.946Z,26.26
2023-08-15T17:53:54.332Z,26.31
2023-08-15T17:56:38.313Z,26.31
2023-08-15T17:59:22.370Z,26.30
2023-08-15T18:02:06.541Z,26.10
2023-08-15T18:04:50.744Z,26.08
2023-08-15T18:07:34.867Z,26.02
2023-08-15T18:10:20.525Z,25.94
2023-08-15T18:13:04.517Z,25.71
2023-08-15T18:15:48.449Z,25.71
2023-08-15T18:18:32.559Z,25.73
2023-08-15T18:21:16.882Z,25.75
2023-08-15T18:24:00.799Z,25.64
2023-08-15T18:26:46.468Z,25.74
2023-08-15T18:29:31.376Z,25.57
2023-08-15T18:32:15.650Z,25.34
2023-08-15T18:35:00.170Z,25.23
2023-08-15T18:37:46.114Z,25.36
2023-08-15T18:40:30.388Z,25.32
2023-08-15T18:43:15.778Z,25.52
2023-08-15T18:45:59.685Z,25.28
2023-08-15T18:48:46.071Z,24.79
2023-08-15T18:51:32.914Z,24.83
2023-08-15T18:54:16.859Z,25.07
2023-08-15T18:57:01.002Z,25.04
2023-08-15T18:59:46.317Z,24.90
2023-08-15T19:02:30.479Z,24.66
2023-08-15T19:05:14.515Z,24.71
2023-08-15T19:07:58.412Z,24.74
2023-08-15T19:10:42.766Z,24.72
2023-08-15T19:13:26.814Z,24.67
2023-08-15T19:16:12.109Z,24.42
2023-08-15T19:19:00.569Z,24.69
2023-08-15T19:21:44.389Z,24.62
2023-08-15T19:24:28.366Z,24.53
2023-08-15T19:27:12.410Z,24.58
2023-08-15T19:29:56.525Z,24.34
2023-08-15T19:32:41.990Z,24.39
2023-08-15T19:35:26.166Z,24.38
2023-08-15T19:38:10.291Z,24.46
2023-08-15T19:40:54.570Z,23.71
2023-08-15T19:43:38.605Z,23.96
2023-08-15T19:46:22.696Z,24.09
2023-08-15T19:49:08.587Z,23.97
2023-08-15T19:51:52.556Z,23.97
2023-08-15T19:54:36.569Z,24.01
2023-08-15T19:57:20.451Z,23.87
2023-08-15T20:00:06.055Z,24.00
2023-08-15T20:02:52.630Z,24.01
2023-08-15T20:05:38.092Z,24.11
2023-08-15T20:08:21.961Z,24.07
2023-08-15T20:11:05.851Z,23.98
2023-08-15T20:13:49.763Z,24.04
2023-08-15T20:16:36.413Z,24.12
2023-08-15T20:19:20.934Z,24.04
2023-08-15T20:22:07.108Z,23.99
2023-08-15T20:24:51.025Z,23.95
2023-08-15T20:27:34.905Z,24.01
2023-08-15T20:30:19.003Z,23.29
2023-08-15T20:33:03.191Z,23.95
2023-08-15T20:35:47.107Z,23.95
2023-08-15T20:38:32.386Z,23.93
2023-08-15T20:41:16.348Z,23.74
2023-08-15T20:44:00.323Z,23.60
2023-08-15T20:46:44.388Z,23.94
2023-08-15T20:49:28.510Z,23.82
2023-08-15T20:52:12.484Z,23.77
2023-08-15T20:54:57.793Z,23.52
2023-08-15T20:57:41.692Z,23.40
2023-08-15T21:00:25.725Z,23.57
2023-08-15T21:03:10.879Z,23.51
2023-08-15T21:05:54.786Z,23.45
2023-08-15T21:08:38.791Z,23.47
2023-08-15T21:11:24.177Z,23.50
2023-08-15T21:14:08.268Z,23.46
2023-08-15T21:16:52.946Z,23.25
2023-08-15T21:19:37.118Z,23.33
2023-08-15T21:22:21.020Z,23.34
2023-08-15T21:25:05.119Z,22.89
2023-08-15T21:27:50.330Z,22.99
2023-08-15T21:30:36.428Z,22.89
2023-08-15T21:33:21.591Z,22.94
2023-08-15T21:36:05.997Z,22.67
2023-08-15T21:38:49.806Z,22.75
2023-08-15T21:41:33.697Z,22.86
2023-08-15T21:44:20.254Z,22.85
2023-08-15T21:47:04.223Z,22.81
2023-08-15T21:49:48.223Z,22.73
2023-08-15T21:52:32.098Z,22.70
2023-08-15T21:55:16.262Z,22.58
2023-08-15T21:58:00.469Z,22.68
2023-08-15T22:00:45.704Z,22.61
2023-08-15T22:03:29.761Z,22.63
2023-08-15T22:06:13.800Z,22.64
2023-08-15T22:08:57.765Z,22.59
2023-08-15T22:11:41.662Z,22.70
2023-08-15T22:14:25.639Z,22.70
2023-08-15T22:17:10.944Z,22.68
2023-08-15T22:19:54.984Z,22.67
2023-08-15T22:22:39.042Z,22.61
2023-08-15T22:25:23.840Z,22.73
2023-08-15T22:28:08.342Z,22.77
2023-08-15T22:30:52.294Z,22.77
2023-08-15T22:33:37.853Z,22.88
2023-08-15T22:36:21.908Z,22.76
2023-08-15T22:39:06.290Z,22.69
2023-08-15T22:41:52.080Z,22.95
2023-08-15T22:44:36.769Z,23.04
2023-08-15T22:47:21.012Z,22.85
2023-08-15T22:50:07.756Z,22.98
2023-08-15T22:52:51.812Z,22.99
2023-08-15T22:55:35.722Z,23.03
2023-08-15T22:58:19.580Z,23.01
2023-08-15T23:01:04.551Z,23.01
2023-08-15T23:03:48.418Z,23.00
2023-08-15T23:06:33.779Z,23.08
2023-08-15T23:09:17.834Z,23.13
2023-08-15T23:12:03.260Z,23.18
2023-08-15T23:14:47.134Z,23.20
2023-08-15T23:17:31.216Z,23.27
2023-08-15T23:20:15.076Z,23.28
2023-08-15T23:23:00.451Z,23.40
2023-08-15T23:25:44.332Z,23.31
2023-08-15T23:28:28.414Z,23.41
2023-08-15T23:31:13.191Z,23.62
2023-08-15T23:33:57.189Z,23.50
2023-08-15T23:36:41.142Z,23.65
2023-08-15T23:39:26.387Z,23.68
2023-08-15T23:42:10.357Z,23.69
2023-08-15T23:44:54.284Z,23.71
2023-08-15T23:47:38.156Z,23.79
2023-08-15T23:50:22.081Z,23.85
2023-08-15T23:53:06.367Z,23.91
2023-08-15T23:55:52.423Z,23.95
2023-08-15T23:58:36.468Z,23.88
